Rogers Spring, Nevada Weather observations

Data are for 10 minute period ending at time listed.
 Day   Time   Solar   Ave.   Ave.  Ave.  Vector  Max.   Baro.   Total    
  of    of     Rad.   Air    Rel.  Wind   Wind   Wind  Press.  Precip.   
Year   Day            Temp.  Hum.  Speed  Dir.   Gust                    
2017   (PST)  Kw/m2    F      %     mph   deg.    mph    mb.     in.     
-------------------------------------------------------------------------
  21   22:00   0.00   42.1    74    2.5   157     4.2   934.0    0.00 
  21   22:10   0.00   43.6    68    2.7   141     5.8   934.1    0.00 
  21   22:20   0.00   45.1    62    2.3   154     4.7   934.3    0.00 
  21   22:30   0.00   45.6    60    3.1   139     7.8   934.2    0.00 
  21   22:40   0.00   46.7    56    4.9   143     9.9   934.0    0.00 
  21   22:50   0.00   46.5    58    4.5   148     8.9   933.7    0.00 
  21   23:00   0.00   45.6    61    3.2   156     6.4   933.9    0.00 
  21   23:10   0.00   46.0    59    4.9   135    12.9   933.7    0.00 
  21   23:20   0.00   47.8    54    5.8   116    11.5   933.7    0.00 
  21   23:30   0.00   47.8    54    3.6   131     9.9   933.6    0.00 
  21   23:40   0.00   47.8    54    3.9   141     9.0   933.6    0.00 
  21   23:50   0.00   47.4    56    3.4   162     8.2   933.6    0.00 
  22    0:00   0.00   46.8    57    2.8   172     7.1   933.3    0.00 
  22    0:10   0.00   44.6    65    1.5   215     3.6   933.2    0.00 
  22    0:20   0.00   43.5    68    1.7   152     6.1   932.6    0.00 
  22    0:30   0.00   43.7    67    5.1   177    10.3   933.1    0.00 
  22    0:40   0.00   43.5    69    4.9   165     9.1   933.5    0.00 
  22    0:50   0.00   43.3    70    4.1   170     6.9   934.2    0.00 
  22    1:00   0.00   43.9    68    3.8   160     6.3   934.3    0.00 
  22    1:10   0.00   43.7    68    3.0   154     5.8   934.1    0.00 
  22    1:20   0.00   43.7    68    2.5   154     4.2   934.1    0.00 
  22    1:30   0.00   43.9    68    3.5   167     7.5   934.6    0.00 
  22    1:40   0.00   44.0    68    3.3   151     5.8   934.8    0.00 
  22    1:50   0.00   44.1    68    4.1   137     9.3   934.4    0.00 
  22    2:00   0.00   44.6    66    3.3   137     8.3   934.2    0.00 
  22    2:10   0.00   45.1    64    3.5   133     7.4   933.9    0.00 
  22    2:20   0.00   46.3    62    8.0   152    14.8   933.9    0.00 
  22    2:30   0.00   46.0    64    8.3   158    13.5   934.3    0.00 
  22    2:40   0.00   45.6    66    7.1   156    15.1   934.2    0.00 
  22    2:50   0.00   45.3    69    8.8   184    15.9   934.2    0.00 
  22    3:00   0.00   44.3    74    6.3   174    12.2   934.2    0.00 
  22    3:10   0.00   44.4    74    6.6   152    14.2   933.8    0.00 
  22    3:20   0.00   44.8    72    7.4   164    14.2   933.7    0.00 
  22    3:30   0.00   44.5    73    6.3   149    12.3   933.9    0.00 
  22    3:40   0.00   44.1    75    6.3   142    12.7   934.1    0.00 
  22    3:50   0.00   43.5    79    4.6   141     9.0   934.2    0.01 
  22    4:00   0.00   43.0    82    3.9   144     7.8   934.4    0.00 
  22    4:10   0.00   42.5    85    3.6   142     8.8   934.2    0.00 
  22    4:20   0.00   42.4    85    4.9   151     7.8   934.1    0.00 
  22    4:30   0.00   42.4    86    4.8   151     8.9   933.8    0.01 
  22    4:40   0.00   42.3    87    6.2   158    11.1   933.9    0.01 
  22    4:50   0.00   42.2    88    5.1   155    10.4   934.3    0.00 
  22    5:00   0.00   42.0    88    5.8   142    12.3   934.1    0.00 
  22    5:10   0.00   42.0    87    6.4   145    12.8   934.4    0.01 
  22    5:20   0.00   41.7    88    5.9   152    10.6   934.8    0.01 
  22    5:30   0.00   41.6    88    5.6   146    11.0   934.9    0.00 
  22    5:40   0.00   41.6    88    6.3   140    13.2   934.6    0.01 
  22    5:50   0.00   41.7    88    6.2   149    12.2   934.6    0.01 
  22    6:00   0.00   41.4    90    6.1   154    10.2   934.5    0.01 
  22    6:10   0.00   41.3    91    5.3   160     9.3   934.5    0.00 
  22    6:20   0.00   41.3    91    4.6   150     9.2   934.8    0.00 
  22    6:30   0.00   41.3    91    4.5   148     9.1   934.4    0.01 
  22    6:40   0.00   41.4    90    5.1   143     9.3   933.9    0.00 
  22    6:50   0.00   41.7    89    6.4   153    11.9   934.0    0.00 
  22    7:00   0.00   41.6    89    5.8   151    10.7   934.3    0.00 
  22    7:10   0.00   41.5    90    6.2   156     9.7   934.3    0.00 
  22    7:20   0.00   41.5    91    5.0   155     8.4   934.5    0.00 
  22    7:30   0.00   41.4    91    4.6   142     8.0   934.5    0.01 
  22    7:40   0.00   41.5    91    5.5   144    11.5   934.3    0.00 
  22    7:50   0.00   41.7    90    7.7   150    15.1   934.2    0.01 
  22    8:00   0.00   41.8    90    7.2   153    12.7   934.3    0.01 
  22    8:10   0.00   41.8    90    8.5   149    15.9   934.3    0.00 
  22    8:20   0.00   41.8    90    7.1   145    14.2   934.4    0.00 
  22    8:30   0.00   41.8    91    8.3   146    14.8   934.5    0.01 
  22    8:40   0.00   41.8    91    7.3   143    14.8   934.5    0.01 
  22    8:50   0.00   41.8    91    6.4   145    13.5   934.6    0.01 
  22    9:00   0.00   41.8    92    7.3   147    15.3   934.3    0.01 
  22    9:10   0.00   41.9    92    6.4   146    12.5   934.2    0.00 
  22    9:20   0.00   42.0    91    8.3   146    18.4   934.3    0.01 
  22    9:30   0.00   42.0    90    8.3   152    15.7   934.5    0.01 
  22    9:40   0.00   41.8    89    9.1   148    15.5   934.7    0.01 
  22    9:50   0.00   41.7    88    9.1   153    15.4   934.7    0.01 
  22   10:00   0.00   41.8    89    9.3   149    19.4   934.7    0.01 
  22   10:10   0.00   42.0    89    8.5   148    17.0   934.3    0.01 
  22   10:20   0.00   42.3    89    8.2   148    15.4   934.4    0.00 
  22   10:30   0.00   42.2    88    8.1   144    15.9   934.2    0.01 
  22   10:40   0.00   42.3    88    6.8   147    13.2   933.9    0.00 
  22   10:50   0.00   42.7    88    6.9   149    12.7   933.7    0.00 
  22   11:00   0.00   42.9    86    8.6   155    14.8   934.0    0.00 
  22   11:10   0.00   42.8    86    9.5   155    18.5   934.2    0.00 
  22   11:20   0.00   42.5    88    8.8   148    21.0   933.8    0.02 
  22   11:30   0.00   42.4    89    9.0   148    17.5   933.3    0.01 
  22   11:40   0.00   42.5    90    9.5   151    16.4   933.2    0.03 
  22   11:50   0.00   42.5    89   10.9   151    19.8   933.1    0.02 
  22   12:00   0.00   42.5    89    9.1   148    16.1   932.6    0.02 
  22   12:10   0.00   42.6    90    9.7   150    19.4   932.3    0.02 
  22   12:20   0.00   42.6    89   11.6   153    22.0   931.7    0.01 
  22   12:30   0.00   42.7    89   12.6   156    22.6   931.3    0.01 
  22   12:40   0.00   43.1    88   12.5   155    20.4   931.2    0.00 
  22   12:50   0.00   43.2    88   12.3   156    22.9   931.0    0.00 
  22   13:00   0.00   43.1    87   11.0   148    20.5   930.9    0.01 
  22   13:10   0.00   43.2    87   10.2   145    21.4   930.5    0.01 
  22   13:20   0.00   43.3    87    9.8   148    20.7   930.2    0.00 
  22   13:30   0.00   43.5    87   10.1   154    18.8   930.5    0.01 
  22   13:40   0.00   43.6    86    9.3   154    17.5   930.5    0.00 
  22   13:50   0.00   43.5    87    9.0   155    16.4   930.4    0.00 
  22   14:00   0.00   43.6    86    9.4   154    18.2   930.7    0.00 
  22   14:10   0.00   43.8    84   10.2   154    17.7   930.7    0.00 
  22   14:20   0.00   43.8    85    8.8   149    17.8   930.4    0.00 
  22   14:30   0.00   43.6    86    7.9   148    15.5   930.2    0.00 
  22   14:40   0.00   44.0    84    8.8   144    17.5   930.2    0.01 
  22   14:50   0.00   44.2    83    7.8   138    15.6   929.9    0.00 
  22   15:00   0.00   44.2    82    7.7   137    16.1   929.4    0.00 
  22   15:10   0.00   44.3    81    8.1   147    17.4   929.6    0.00 
  22   15:20   0.00   44.4    81    7.3   159    15.3   930.0    0.00 
  22   15:30   0.00   43.7    85    5.0   186    12.3   930.1    0.01 
  22   15:40   0.00   43.3    88    3.6   179     6.6   929.9    0.03 
  22   15:50   0.00   43.3    88    6.3   158    12.6   929.8    0.01 
  22   16:00   0.00   43.2    89    5.0   158    12.6   929.7    0.01 
  22   16:10   0.00   43.1    89    4.1   161     7.2   929.4    0.01 
  22   16:20   0.00   43.3    89    5.1   161    11.3   929.4    0.02 
  22   16:30   0.00   43.3    89    5.1   158    10.6   929.6    0.00 
  22   16:40   0.00   43.2    90    5.0   158     8.5   929.6    0.00 
  22   16:50   0.00   43.3    90    6.4   153    12.3   929.4    0.00 
  22   17:00   0.00   43.5    90    5.7   160    12.1   929.2    0.00 
  22   17:10   0.00   43.7    90    5.9   151    11.2   928.8    0.00 
  22   17:20   0.00   44.5    87    6.5   145    11.7   928.7    0.00 
  22   17:30   0.00   44.3    88    6.5   161    11.8   928.8    0.00 
  22   17:40   0.00   44.0    90    6.7   154    12.5   928.6    0.01 
  22   17:50   0.00   44.2    89    8.3   154    14.6   928.2    0.00 
  22   18:00   0.00   44.4    89    7.8   157    16.0   928.1    0.00 
  22   18:10   0.00   44.4    89    7.3   157    14.6   928.1    0.00 
  22   18:20   0.00   44.6    89    8.5   151    18.6   927.8    0.00 
  22   18:30   0.00   44.6    90    7.0   152    13.3   927.7    0.00 
  22   18:40   0.00   44.6    90    8.5   150    16.4   927.3    0.00 
  22   18:50   0.00   44.8    90    9.2   147    16.9   926.8    0.00 
  22   19:00   0.00   44.9    89   10.8   143    21.8   926.0    0.00 
  22   19:10   0.00   45.5    87   12.1   148    21.9   925.5    0.00 
  22   19:20   0.00   45.9    85   13.1   150    23.4   925.7    0.00 
  22   19:30   0.00   46.0    85   12.0   152    20.8   925.7    0.00 
  22   19:40   0.00   46.3    84   11.8   155    23.2   925.8    0.00 
  22   19:50   0.00   46.5    83   11.2   160    20.8   926.0    0.00 
  22   20:00   0.00   46.6    83   10.4   164    22.7   926.0    0.00 
  22   20:10   0.00   46.6    82   10.0   172    17.1   926.0    0.00 
  22   20:20   0.00   46.6    83    9.5   176    16.7   925.9    0.00 
  22   20:30   0.00   46.2    85    7.5   174    13.1   925.8    0.00 
  22   20:40   0.00   46.1    86    6.7   186    14.0   925.9    0.00 
  22   20:50   0.00   45.8    88   10.2   193    15.5   925.9    0.00 
  22   21:00   0.00   45.7    89    9.8   186    19.4   926.0    0.00 
  22   21:10   0.00   45.8    89   10.9   186    19.2   926.0    0.01 
  22   21:20   0.00   46.1    88   13.6   177    25.9   926.0    0.00 
  22   21:30   0.00   46.4    87   14.2   166    23.6   925.8    0.00 
  22   21:40   0.00   46.2    88   14.6   159    28.2   925.8    0.00 
  22   21:50   0.00   46.1    88   16.7   157    25.3   925.7    0.00 

Return to Rogers Spring graphs page.


Western Regional Climate Center,wrcc@dri.edu